Ash, NC

7:51 PM EDT on September 22, 2014 (GMT -0400)
Henry Cannon Smith Farm | Change Station
CLOSE
Current Station
Personal Weather Station
Location: Nakina, NC
Elevation: 0 ft
Nearby Weather Stations

Elev 0 ft 34.14 °N, 78.62 °W | Updated 12 minutes ago

Overcast
Overcast
71.1 °F
Feels Like 71.1 °F
N
0.0
Wind Variable Wind from SW
Gusts 0.0 mph

Today
High -- | Low -- °F
--% Chance of Precip.
Yesterday
High -- | Low -- °F
Precip. -- in
7:02 AM 7:10 PM
Waning Crescent, 2% visible
Pressure 30.06 in
Visibility 10.0 miles
Clouds Mostly Cloudy 5500 ft
Mostly Cloudy 9000 ft
Dew Point 69 °F
Humidity 92%
Rainfall 0.02 in
Snow Depth Not available.
UV 0 out of 12
Pollen 7.00 out of 12
Air Quality Not available.
Flu Activity Not available.
METAR KCPC 222335Z AUTO 00000KT 10SM BKN055 BKN090 22/19 A3006 RMK AO2 T02170186

More Conditions Fewer Conditions

Pressure 30.06 in
Visibility 10.0 miles
Clouds Mostly Cloudy 5500 ft
Mostly Cloudy 9000 ft
Dew Point 69 °F
Humidity 92%
Rainfall 0.02 in
Snow Depth Not available.
UV 0 out of 12
Pollen 7.00 out of 12
Air Quality Not available.
Flu Activity Not available.
METAR KCPC 222335Z AUTO 00000KT 10SM BKN055 BKN090 22/19 A3006 RMK AO2 T02170186

More Conditions Fewer Conditions

10-Day Weather Forecast

Almanac

Astronomy

Sep. 22, 2014 Rise Set
Actual Time 7:02 AM EDT 7:10 PM EDT
Civil Twilight 6:37 AM EDT 7:35 PM EDT
Nautical Twilight 6:07 AM EDT 8:04 PM EDT
Astronomical Twilight 5:38 AM EDT 8:34 PM EDT
Moon 5:32 AM EDT 6:15 PM EDT
Length of Visible Light 12h 58m
Length of Day
12h 08m
Tomorrow will be 2m 6s shorter.
Waning Crescent, 2% of the Moon is Illuminated
Today
Waning Crescent
Sep 24
New
Oct 1
First Quarter
Oct 8
Full
Oct 15
Last Quarter

Today's Extremes

State Highs State Lows

Community

WunderPhotos

Upload Photos

1,755,558 photos uploaded!

Nearby

Snow Depth

Station Depth Elevation
No new snow has been reported.

Earthquake Activity

City Distance Mag. Time & Date
No recent earthquake activity has been reported nearby.
Minimum magnitude displayed is 2.5.

Coastal Water Temperatures

Place Temperature
Johnny Mercer Pier, Wrightsville Beach, NC 80.1 °F
Springmaid Pier, SC 78.1 °F

Nearby Weather Stations